createdAt,value
2019-04-14T00:36:45.961Z,99.90
2019-04-14T00:39:27.391Z,99.90
2019-04-14T00:42:12.673Z,99.90
2019-04-14T00:44:49.610Z,99.90
2019-04-14T00:47:20.063Z,99.90
2019-04-14T00:49:50.880Z,99.90
2019-04-14T00:52:19.578Z,99.90
2019-04-14T00:54:52.151Z,99.90
2019-04-14T00:57:22.277Z,99.90
2019-04-14T00:59:50.949Z,99.90
2019-04-14T01:02:19.447Z,99.90
2019-04-14T01:04:49.016Z,99.90
2019-04-14T01:07:17.761Z,99.90
2019-04-14T01:10:10.390Z,99.90
2019-04-14T01:12:56.027Z,99.90
2019-04-14T01:15:44.834Z,99.90
2019-04-14T01:18:12.551Z,99.90
2019-04-14T01:21:04.507Z,99.90
2019-04-14T01:23:50.094Z,99.90
2019-04-14T01:26:20.277Z,99.90
2019-04-14T01:28:48.925Z,99.90
2019-04-14T01:31:18.372Z,99.90
2019-04-14T01:33:47.039Z,99.90
2019-04-14T01:36:17.023Z,99.90
2019-04-14T01:38:47.126Z,99.90
2019-04-14T01:41:17.139Z,99.90
2019-04-14T01:43:45.600Z,99.90
2019-04-14T01:46:20.976Z,99.90
2019-04-14T01:48:45.826Z,99.90
2019-04-14T01:51:27.328Z,99.90
2019-04-14T01:54:14.926Z,99.90
2019-04-14T01:57:08.796Z,99.90
2019-04-14T01:59:46.005Z,99.90
2019-04-14T02:02:20.575Z,99.90
2019-04-14T02:04:49.213Z,99.90
2019-04-14T02:07:18.812Z,99.90
2019-04-14T02:09:47.473Z,99.90
2019-04-14T02:12:16.995Z,99.90
2019-04-14T02:14:47.403Z,99.90
2019-04-14T02:17:15.961Z,99.90
2019-04-14T02:19:46.129Z,99.90
2019-04-14T02:22:16.562Z,99.90
2019-04-14T02:24:46.708Z,99.90
2019-04-14T02:27:16.672Z,99.90
2019-04-14T02:29:47.336Z,99.90
2019-04-14T02:32:42.590Z,99.90
2019-04-14T02:35:21.183Z,99.90
2019-04-14T02:37:43.314Z,99.90
2019-04-14T02:40:21.703Z,99.90
2019-04-14T02:42:46.309Z,99.90
2019-04-14T02:45:35.476Z,99.90
2019-04-14T02:50:17.741Z,99.90
2019-04-14T02:55:19.074Z,99.90
2019-04-14T03:00:23.927Z,99.90
2019-04-14T03:05:19.579Z,99.90
2019-04-14T03:07:51.704Z,99.90
2019-04-14T03:18:18.691Z,99.90
2019-04-14T03:21:10.459Z,99.90
2019-04-14T03:24:07.115Z,99.90
2019-04-14T03:27:06.322Z,99.90
2019-04-14T03:29:49.839Z,99.90
2019-04-14T03:32:53.157Z,99.90
2019-04-14T03:35:19.876Z,99.90
2019-04-14T03:37:39.248Z,99.90
2019-04-14T03:39:52.158Z,99.90
2019-04-14T03:42:36.023Z,99.90
2019-04-14T03:44:48.667Z,99.90
2019-04-14T03:47:20.065Z,99.90
2019-04-14T03:52:22.128Z,99.90
2019-04-14T03:54:44.057Z,99.90
2019-04-14T03:56:57.686Z,99.90
2019-04-14T03:59:28.691Z,99.90
2019-04-14T04:02:00.980Z,99.90
2019-04-14T04:04:51.242Z,99.90
2019-04-14T04:07:23.603Z,99.90
2019-04-14T04:09:54.094Z,99.90
2019-04-14T04:12:22.791Z,99.90
2019-04-14T04:14:51.334Z,99.90
2019-04-14T04:17:36.179Z,99.90
2019-04-14T04:20:19.720Z,99.90
2019-04-14T04:22:56.541Z,99.90
2019-04-14T04:25:36.358Z,99.90
2019-04-14T04:28:17.293Z,99.90
2019-04-14T04:30:53.915Z,99.90
2019-04-14T04:33:26.762Z,99.90
2019-04-14T04:35:59.176Z,99.90
2019-04-14T04:38:31.279Z,99.90
2019-04-14T04:41:02.289Z,99.90
2019-04-14T04:43:56.108Z,99.90
2019-04-14T04:46:24.559Z,99.90
2019-04-14T04:49:03.371Z,99.90
2019-04-14T04:51:23.175Z,99.90
2019-04-14T04:53:52.714Z,99.90
2019-04-14T04:56:21.207Z,99.90
2019-04-14T04:58:56.704Z,99.90
2019-04-14T05:01:25.317Z,99.90
2019-04-14T05:03:53.799Z,99.90
2019-04-14T05:06:43.772Z,99.90
2019-04-14T05:09:19.270Z,99.90
2019-04-14T05:56:47.638Z,99.90
2019-04-14T05:59:26.370Z,99.90
2019-04-14T06:01:54.958Z,99.90
2019-04-14T06:04:24.330Z,99.90
2019-04-14T06:07:10.368Z,99.90
2019-04-14T06:13:11.796Z,99.90
2019-04-14T06:15:53.075Z,99.90
2019-04-14T06:18:25.779Z,99.90
2019-04-14T06:20:54.233Z,99.90
2019-04-14T06:23:22.740Z,99.90
2019-04-14T06:25:51.505Z,99.90
2019-04-14T06:28:19.954Z,99.90
2019-04-14T06:31:09.096Z,99.90
2019-04-14T06:33:44.502Z,99.90
2019-04-14T06:36:39.030Z,99.90
2019-04-14T06:39:17.958Z,99.90
2019-04-14T06:41:46.538Z,99.90
2019-04-14T06:44:16.659Z,99.90
2019-04-14T06:46:57.557Z,99.90
2019-04-14T06:49:26.015Z,99.90
2019-04-14T06:51:54.493Z,99.90
2019-04-14T06:54:22.963Z,99.90
2019-04-14T06:56:52.365Z,99.90
2019-04-14T06:59:20.871Z,99.90
2019-04-14T07:01:49.347Z,99.90
2019-04-14T07:04:17.808Z,99.90
2019-04-14T07:06:47.635Z,99.90
2019-04-14T07:09:16.827Z,99.90
2019-04-14T07:11:47.325Z,99.90
2019-04-14T07:14:17.216Z,99.90
2019-04-14T07:16:47.466Z,99.90
2019-04-14T07:19:20.761Z,99.90
2019-04-14T07:21:52.536Z,99.90
2019-04-14T07:24:32.722Z,99.90
2019-04-14T07:27:08.978Z,99.90
2019-04-14T07:29:50.978Z,99.90
2019-04-14T07:32:22.235Z,99.90
2019-04-14T07:34:52.921Z,99.90
2019-04-14T07:37:38.519Z,99.90
2019-04-14T07:40:30.833Z,99.90
2019-04-14T07:43:01.201Z,99.90
2019-04-14T07:45:50.760Z,99.90
2019-04-14T07:48:21.576Z,99.90
2019-04-14T07:51:10.496Z,99.90
2019-04-14T07:53:50.399Z,99.90
2019-04-14T07:56:23.049Z,99.90
2019-04-14T07:59:12.249Z,99.90
2019-04-14T08:01:53.945Z,99.90
2019-04-14T08:04:24.360Z,99.90
2019-04-14T08:06:54.357Z,99.90
2019-04-14T08:09:23.107Z,99.90
2019-04-14T08:11:52.155Z,99.90
2019-04-14T08:14:26.886Z,99.90
2019-04-14T08:16:55.397Z,99.90
2019-04-14T08:19:23.882Z,99.90
2019-04-14T08:21:55.418Z,99.90
2019-04-14T08:24:31.301Z,99.90
2019-04-14T08:27:03.162Z,99.90
2019-04-14T08:29:36.312Z,99.90
2019-04-14T08:32:30.715Z,99.90
2019-04-14T08:34:59.564Z,99.90
2019-04-14T08:37:28.113Z,99.90
2019-04-14T08:39:56.554Z,99.90
2019-04-14T08:42:26.640Z,99.90
2019-04-14T08:44:56.750Z,99.90
2019-04-14T08:47:43.921Z,99.90
2019-04-14T08:50:38.920Z,99.90
2019-04-14T08:53:12.086Z,99.90
2019-04-14T08:55:49.619Z,99.90
2019-04-14T08:58:39.043Z,99.90
2019-04-14T09:01:20.016Z,99.90
2019-04-14T09:03:53.168Z,99.90
2019-04-14T09:06:25.951Z,99.90
2019-04-14T09:09:07.448Z,99.90
2019-04-14T09:11:42.465Z,99.90
2019-04-14T09:14:20.492Z,99.90
2019-04-14T09:16:48.998Z,99.90
2019-04-14T09:19:19.782Z,99.90
2019-04-14T09:21:50.755Z,99.90
2019-04-14T09:24:19.205Z,99.90
2019-04-14T09:26:49.682Z,99.90
2019-04-14T09:29:20.180Z,99.90
2019-04-14T09:31:52.682Z,99.90
2019-04-14T09:34:22.047Z,99.90
2019-04-14T09:36:51.866Z,99.90
2019-04-14T09:39:20.439Z,99.90
2019-04-14T09:41:48.955Z,99.90
2019-04-14T09:44:17.478Z,99.90
2019-04-14T09:46:47.087Z,99.90
2019-04-14T09:49:17.143Z,99.90
2019-04-14T09:51:45.890Z,99.90
2019-04-14T09:54:17.277Z,99.90
2019-04-14T09:56:46.926Z,99.90
2019-04-14T09:59:26.826Z,99.90
2019-04-14T10:01:55.636Z,99.90
2019-04-14T10:04:24.983Z,99.90
2019-04-14T10:06:53.426Z,99.90
2019-04-14T10:09:21.918Z,99.90
2019-04-14T10:11:54.665Z,99.90
2019-04-14T10:14:23.338Z,99.90
2019-04-14T10:16:51.842Z,99.90
2019-04-14T10:19:30.952Z,99.90
2019-04-14T10:22:05.495Z,99.90
2019-04-14T10:24:42.375Z,99.90
2019-04-14T10:27:31.699Z,99.90
2019-04-14T10:30:00.624Z,99.90
2019-04-14T10:32:29.053Z,99.90
2019-04-14T10:35:06.216Z,99.90
2019-04-14T10:37:43.679Z,99.90
2019-04-14T10:40:18.677Z,99.90
2019-04-14T10:45:45.684Z,99.90
2019-04-14T10:48:18.833Z,99.90
2019-04-14T10:50:51.409Z,99.90
2019-04-14T10:53:20.299Z,99.90
2019-04-14T10:55:51.848Z,99.90
2019-04-14T10:58:21.151Z,99.90
2019-04-14T11:00:59.741Z,99.90
2019-04-14T11:03:28.342Z,99.90
2019-04-14T11:06:28.236Z,99.90
2019-04-14T11:08:56.785Z,99.90
2019-04-14T11:11:25.390Z,99.90
2019-04-14T11:16:53.527Z,99.90
2019-04-14T11:19:23.995Z,99.90
2019-04-14T11:21:58.354Z,99.90
2019-04-14T11:24:26.847Z,99.90
2019-04-14T11:26:55.284Z,99.90
2019-04-14T11:29:23.743Z,99.90
2019-04-14T11:31:53.872Z,99.90
2019-04-14T11:34:42.428Z,99.90
2019-04-14T11:37:36.161Z,99.90
2019-04-14T11:40:11.450Z,99.90
2019-04-14T11:42:52.319Z,99.90
2019-04-14T11:45:18.545Z,99.90
2019-04-14T11:48:19.057Z,99.90
2019-04-14T11:50:49.302Z,99.90
2019-04-14T11:53:19.129Z,99.90
2019-04-14T11:55:48.339Z,99.90
2019-04-14T11:58:18.420Z,99.90
2019-04-14T12:01:13.325Z,99.90
2019-04-14T12:03:49.770Z,99.90
2019-04-14T12:06:51.138Z,99.90
2019-04-14T12:09:40.258Z,99.90
2019-04-14T12:12:30.515Z,99.90
2019-04-14T12:17:48.495Z,99.90
2019-04-14T12:20:22.190Z,99.90
2019-04-14T12:22:51.965Z,99.90
2019-04-14T12:25:33.353Z,99.90
2019-04-14T12:28:07.045Z,99.90
2019-04-14T12:30:38.332Z,99.90
2019-04-14T12:33:11.827Z,99.90
2019-04-14T12:35:42.707Z,99.90
2019-04-14T12:38:12.240Z,99.90
2019-04-14T12:40:44.356Z,99.90
2019-04-14T12:43:17.962Z,99.90
2019-04-14T12:46:06.586Z,99.90
2019-04-14T12:48:39.684Z,99.90
2019-04-14T12:51:13.151Z,99.90
2019-04-14T12:53:43.741Z,99.90
2019-04-14T12:56:17.319Z,99.90
2019-04-14T12:58:54.705Z,99.90
2019-04-14T13:01:24.881Z,99.90
2019-04-14T13:03:53.309Z,99.90
2019-04-14T13:06:21.768Z,99.90
2019-04-14T13:08:50.363Z,99.90
2019-04-14T13:11:18.841Z,99.90
2019-04-14T13:13:48.692Z,99.90
2019-04-14T13:16:20.087Z,99.90
2019-04-14T13:18:48.714Z,99.90
2019-04-14T13:21:18.420Z,99.90
2019-04-14T13:23:49.660Z,99.90
2019-04-14T13:26:19.912Z,99.90
2019-04-14T13:28:50.103Z,99.90
2019-04-14T13:31:21.899Z,99.90
2019-04-14T13:33:50.965Z,99.90
2019-04-14T13:36:19.549Z,99.90
2019-04-14T13:38:48.627Z,99.90
2019-04-14T13:41:18.251Z,99.90
2019-04-14T13:43:48.533Z,99.90
2019-04-14T13:46:18.345Z,99.90
2019-04-14T13:48:48.432Z,99.90
2019-04-14T13:51:18.429Z,99.90
2019-04-14T13:53:46.869Z,99.90
2019-04-14T13:56:20.104Z,99.90
2019-04-14T13:58:52.144Z,99.70
2019-04-14T14:01:20.857Z,99.90
2019-04-14T14:03:50.254Z,99.00
2019-04-14T14:06:20.391Z,99.30
2019-04-14T14:08:50.295Z,98.60
2019-04-14T14:11:40.658Z,97.80
2019-04-14T14:14:23.297Z,99.70
2019-04-14T14:17:11.387Z,99.50
2019-04-14T14:20:03.902Z,99.90
2019-04-14T14:22:39.089Z,99.90
2019-04-14T14:25:13.538Z,99.90
2019-04-14T14:27:49.036Z,99.90
2019-04-14T14:30:20.037Z,99.90
2019-04-14T14:32:49.831Z,99.90
2019-04-14T14:35:36.351Z,99.90
2019-04-14T14:38:13.473Z,99.90
2019-04-14T14:40:52.196Z,99.60
2019-04-14T14:43:20.733Z,99.90
2019-04-14T14:45:54.309Z,99.90
2019-04-14T14:48:27.507Z,99.70
2019-04-14T14:51:02.003Z,99.90
2019-04-14T14:53:35.583Z,99.90
2019-04-14T14:56:10.102Z,99.90
2019-04-14T14:58:45.200Z,99.70
2019-04-14T15:01:15.322Z,97.40
2019-04-14T15:03:44.860Z,97.00
2019-04-14T15:06:14.896Z,97.30
2019-04-14T15:08:52.483Z,96.50
2019-04-14T15:11:21.141Z,96.90
2019-04-14T15:13:52.234Z,96.00
2019-04-14T15:19:30.107Z,95.30
2019-04-14T15:22:08.247Z,94.80
2019-04-14T15:24:44.796Z,94.70
2019-04-14T15:27:17.904Z,94.70
2019-04-14T15:29:50.243Z,93.40
2019-04-14T15:32:20.253Z,94.40
2019-04-14T15:34:49.665Z,94.00
2019-04-14T15:37:18.866Z,93.80
2019-04-14T15:40:08.153Z,93.90
2019-04-14T15:42:43.349Z,92.10
2019-04-14T15:45:17.865Z,93.20
2019-04-14T15:47:59.034Z,92.50
2019-04-14T15:50:28.573Z,92.60
2019-04-14T15:52:57.064Z,91.80
2019-04-14T15:55:28.281Z,92.30
2019-04-14T15:58:11.998Z,91.50
2019-04-14T16:00:44.933Z,91.60
2019-04-14T16:03:23.403Z,91.40
2019-04-14T16:05:53.967Z,91.10
2019-04-14T16:08:25.388Z,91.80
2019-04-14T16:10:55.516Z,91.40
2019-04-14T16:13:28.834Z,92.00
2019-04-14T16:16:08.196Z,90.70
2019-04-14T16:22:00.573Z,90.20
2019-04-14T16:24:36.069Z,91.60
2019-04-14T16:27:12.360Z,92.10
2019-04-14T16:30:05.667Z,92.60
2019-04-14T16:32:42.712Z,92.70
2019-04-14T16:35:18.068Z,93.10
2019-04-14T16:37:54.761Z,92.90
2019-04-14T16:40:23.890Z,92.60
2019-04-14T16:42:53.375Z,93.30
2019-04-14T16:45:21.919Z,92.60
2019-04-14T16:47:51.323Z,92.90
2019-04-14T16:50:22.851Z,93.20
2019-04-14T16:52:53.109Z,93.70
2019-04-14T16:55:23.719Z,93.30
2019-04-14T16:58:13.278Z,93.80
2019-04-14T17:06:24.474Z,94.40
2019-04-14T17:08:53.214Z,94.40
2019-04-14T17:11:21.711Z,94.80
2019-04-14T17:20:23.419Z,95.10
2019-04-14T17:23:24.718Z,95.10
2019-04-14T17:25:57.283Z,96.20
2019-04-14T17:28:27.374Z,95.60
2019-04-14T17:31:05.462Z,96.10
2019-04-14T17:33:48.722Z,95.20
2019-04-14T17:36:20.923Z,95.30
2019-04-14T17:38:52.989Z,95.10
2019-04-14T17:41:34.458Z,95.50
2019-04-14T17:44:11.529Z,95.20
2019-04-14T17:47:00.630Z,95.30
2019-04-14T17:50:02.512Z,95.00
2019-04-14T17:52:44.893Z,95.10
2019-04-14T17:55:21.352Z,95.20
2019-04-14T17:57:54.297Z,95.80
2019-04-14T18:00:24.443Z,96.30
2019-04-14T18:02:57.234Z,96.50
2019-04-14T18:05:55.332Z,97.00
2019-04-14T18:08:28.244Z,97.80
2019-04-14T18:11:08.860Z,98.10
2019-04-14T18:13:57.226Z,97.90
2019-04-14T18:16:30.133Z,98.50
2019-04-14T18:19:15.119Z,98.90
2019-04-14T18:21:48.960Z,99.30
2019-04-14T18:24:20.233Z,99.50
2019-04-14T18:26:49.514Z,99.80
2019-04-14T18:29:21.185Z,99.90
2019-04-14T18:32:09.299Z,99.90
2019-04-14T18:34:47.510Z,99.90
2019-04-14T18:37:25.484Z,99.90
2019-04-14T18:43:12.556Z,99.90
2019-04-14T18:49:06.248Z,99.90
2019-04-14T18:51:50.273Z,99.90
2019-04-14T18:54:22.483Z,99.90
2019-04-14T18:56:55.630Z,99.90
2019-04-14T18:59:25.747Z,99.90
2019-04-14T19:01:57.474Z,99.90
2019-04-14T19:04:25.894Z,99.90
2019-04-14T19:06:54.479Z,99.90
2019-04-14T19:09:23.070Z,99.90
2019-04-14T19:11:55.908Z,99.90
2019-04-14T19:14:28.845Z,99.90
2019-04-14T19:16:59.094Z,99.90
2019-04-14T19:19:27.531Z,99.90
2019-04-14T19:21:55.993Z,99.90
2019-04-14T19:24:24.408Z,99.90
2019-04-14T19:26:52.860Z,99.90
2019-04-14T19:29:21.454Z,99.90
2019-04-14T19:31:50.242Z,99.90
2019-04-14T19:34:22.168Z,99.90
2019-04-14T19:36:50.761Z,99.90
2019-04-14T19:39:21.165Z,99.90
2019-04-14T19:41:49.934Z,99.90
2019-04-14T19:44:53.737Z,99.90
2019-04-14T19:47:22.690Z,99.90
2019-04-14T19:49:51.535Z,99.90
2019-04-14T19:52:21.789Z,99.90
2019-04-14T19:54:50.705Z,99.90
2019-04-14T19:57:20.456Z,99.90
2019-04-14T19:59:49.955Z,99.90
2019-04-14T20:02:20.765Z,99.90
2019-04-14T20:04:49.197Z,99.90
2019-04-14T20:07:17.917Z,99.90
2019-04-14T20:09:46.347Z,99.90
2019-04-14T20:16:13.758Z,99.90
2019-04-14T20:19:09.924Z,99.90
2019-04-14T20:21:45.433Z,99.90
2019-04-14T20:24:24.736Z,99.90
2019-04-14T20:27:03.908Z,99.90
2019-04-14T20:29:36.952Z,99.90
2019-04-14T20:32:19.976Z,99.90
2019-04-14T20:34:48.403Z,99.90
2019-04-14T20:37:17.817Z,99.90
2019-04-14T20:39:47.263Z,99.90
2019-04-14T20:42:18.774Z,99.90
2019-04-14T20:44:47.206Z,99.90
2019-04-14T20:47:18.203Z,99.90
2019-04-14T20:49:46.700Z,99.90
2019-04-14T20:52:15.147Z,99.90
2019-04-14T20:54:44.135Z,99.90
2019-04-14T20:57:12.565Z,99.90
2019-04-14T20:59:40.979Z,99.90
2019-04-14T21:05:28.842Z,99.90
2019-04-14T21:08:10.800Z,99.90
2019-04-14T21:10:43.349Z,99.90
2019-04-14T21:13:16.272Z,99.90
2019-04-14T21:15:55.085Z,99.90
2019-04-14T21:18:25.156Z,99.90
2019-04-14T21:21:01.013Z,99.90
2019-04-14T21:23:34.044Z,99.90
2019-04-14T21:26:20.372Z,99.90
2019-04-14T21:28:50.492Z,99.90
2019-04-14T21:31:23.382Z,99.90
2019-04-14T21:37:05.429Z,99.90
2019-04-14T21:39:51.773Z,99.90
2019-04-14T21:42:20.730Z,99.90
2019-04-14T21:44:49.219Z,99.90
2019-04-14T21:47:17.699Z,99.90
2019-04-14T21:49:46.153Z,99.90
2019-04-14T21:52:16.301Z,99.90
2019-04-14T21:54:44.964Z,99.90
2019-04-14T21:57:31.360Z,99.90
2019-04-14T22:00:17.661Z,99.90
2019-04-14T22:03:04.301Z,99.90
2019-04-14T22:05:43.323Z,99.90
2019-04-14T22:08:13.726Z,99.90
2019-04-14T22:10:46.621Z,99.90
2019-04-14T22:13:15.075Z,99.90
2019-04-14T22:15:43.506Z,99.90
2019-04-14T22:18:12.018Z,99.90
2019-04-14T22:20:40.428Z,99.90
2019-04-14T22:23:10.482Z,99.90
2019-04-14T22:25:38.936Z,99.90
2019-04-14T22:28:07.310Z,99.90
2019-04-14T22:30:35.726Z,99.90
2019-04-14T22:33:04.911Z,99.90
2019-04-14T22:35:33.406Z,99.90
2019-04-14T22:38:01.873Z,99.90
2019-04-14T22:40:49.736Z,99.90
2019-04-14T22:43:18.290Z,99.90
2019-04-14T22:45:46.721Z,99.90
2019-04-14T22:48:15.135Z,99.90
2019-04-14T22:50:43.593Z,99.90
2019-04-14T22:53:12.147Z,99.90
2019-04-14T22:55:40.567Z,99.90
2019-04-14T22:58:08.966Z,99.90
2019-04-14T23:00:41.852Z,99.90
2019-04-14T23:03:20.928Z,99.90
2019-04-14T23:08:48.070Z,99.90
2019-04-14T23:11:41.101Z,99.90
2019-04-14T23:14:29.764Z,99.90
2019-04-14T23:17:09.791Z,99.90
2019-04-14T23:19:47.919Z,99.90
2019-04-14T23:22:25.421Z,99.90
2019-04-14T23:24:53.875Z,99.90
2019-04-14T23:27:22.358Z,99.90
2019-04-14T23:29:51.416Z,99.90
2019-04-14T23:32:22.017Z,99.90
2019-04-14T23:34:51.621Z,99.90
2019-04-14T23:37:21.938Z,99.90
2019-04-14T23:39:50.374Z,99.90
2019-04-14T23:42:18.791Z,99.90
2019-04-14T23:44:47.274Z,99.90
2019-04-14T23:47:16.616Z,99.90
2019-04-14T23:49:48.337Z,99.90
2019-04-14T23:52:19.987Z,99.90
2019-04-14T23:54:50.945Z,99.90
2019-04-14T23:57:20.362Z,99.90
